createdAt,value
2019-05-02T00:01:06.134Z,3.30
2019-05-02T00:03:36.025Z,3.30
2019-05-02T00:06:07.387Z,2.93
2019-05-02T00:08:34.333Z,3.20
2019-05-02T00:11:02.069Z,3.53
2019-05-02T00:13:29.667Z,4.10
2019-05-02T00:15:58.053Z,3.60
2019-05-02T00:18:26.282Z,3.27
2019-05-02T00:20:57.117Z,4.00
2019-05-02T00:23:27.785Z,3.77
2019-05-02T00:25:52.956Z,3.67
2019-05-02T00:28:21.409Z,3.53
2019-05-02T00:30:48.750Z,3.90
2019-05-02T00:33:16.191Z,3.57
2019-05-02T00:35:46.092Z,3.37
2019-05-02T00:38:12.752Z,4.13
2019-05-02T00:40:40.071Z,3.73
2019-05-02T00:43:07.466Z,4.57
2019-05-02T00:45:34.862Z,4.47
2019-05-02T00:48:08.702Z,4.60
2019-05-02T00:50:40.596Z,4.60
2019-05-02T00:53:12.038Z,4.03
2019-05-02T00:55:36.912Z,3.83
2019-05-02T00:58:04.472Z,4.53
2019-05-02T01:00:37.768Z,4.00
2019-05-02T01:03:05.070Z,4.20
2019-05-02T01:05:33.705Z,4.17
2019-05-02T01:08:03.041Z,4.50
2019-05-02T01:10:30.751Z,4.30
2019-05-02T01:12:58.084Z,4.30
2019-05-02T01:15:25.431Z,5.00
2019-05-02T01:17:52.740Z,4.07
2019-05-02T01:20:22.221Z,4.00
2019-05-02T01:22:52.354Z,5.03
2019-05-02T01:25:18.465Z,4.47
2019-05-02T01:28:12.606Z,5.07
2019-05-02T01:31:02.475Z,4.90
2019-05-02T01:33:41.801Z,4.50
2019-05-02T01:36:24.373Z,4.33
2019-05-02T01:38:51.659Z,4.77
2019-05-02T01:41:18.951Z,5.00
2019-05-02T01:43:46.265Z,5.20
2019-05-02T01:46:17.231Z,4.33
2019-05-02T01:48:45.926Z,4.80
2019-05-02T01:51:12.212Z,4.93
2019-05-02T01:53:39.589Z,5.10
2019-05-02T01:56:06.974Z,4.77
2019-05-02T01:58:34.292Z,4.47
2019-05-02T02:01:01.710Z,4.77
2019-05-02T02:03:29.021Z,5.10
2019-05-02T02:05:56.318Z,5.17
2019-05-02T02:08:27.404Z,4.80
2019-05-02T02:10:56.047Z,4.90
2019-05-02T02:13:22.334Z,5.30
2019-05-02T02:15:49.630Z,4.93
2019-05-02T02:18:22.366Z,4.70
2019-05-02T02:21:03.833Z,4.77
2019-05-02T02:23:53.359Z,5.30
2019-05-02T02:26:21.073Z,5.10
2019-05-02T02:28:48.373Z,5.20
2019-05-02T02:31:19.272Z,4.47
2019-05-02T02:33:48.041Z,4.87
2019-05-02T02:36:15.790Z,4.80
2019-05-02T02:38:43.101Z,5.50
2019-05-02T02:41:12.961Z,4.97
2019-05-02T02:43:40.024Z,4.77
2019-05-02T02:46:16.680Z,4.63
2019-05-02T02:48:43.971Z,4.90
2019-05-02T02:51:22.013Z,4.83
2019-05-02T02:53:40.571Z,4.80
2019-05-02T02:56:08.085Z,4.97
2019-05-02T02:58:45.665Z,4.70
2019-05-02T03:01:05.452Z,5.27
2019-05-02T03:03:35.212Z,4.73
2019-05-02T03:06:05.597Z,4.93
2019-05-02T03:08:31.239Z,4.50
2019-05-02T03:10:58.752Z,4.70
2019-05-02T03:13:53.350Z,4.67
2019-05-02T03:16:23.240Z,5.20
2019-05-02T03:18:50.551Z,4.57
2019-05-02T03:21:20.349Z,4.90
2019-05-02T03:23:47.053Z,4.93
2019-05-02T03:26:15.592Z,4.40
2019-05-02T03:28:43.727Z,4.50
2019-05-02T03:31:23.842Z,5.43
2019-05-02T03:33:54.717Z,4.47
2019-05-02T03:36:26.126Z,4.37
2019-05-02T03:38:40.179Z,5.00
2019-05-02T03:41:13.658Z,4.80
2019-05-02T03:43:36.815Z,4.47
2019-05-02T03:46:04.153Z,5.00
2019-05-02T03:48:31.435Z,4.97
2019-05-02T03:50:58.731Z,5.10
2019-05-02T03:53:27.739Z,5.30
2019-05-02T03:55:55.293Z,4.87
2019-05-02T03:58:22.967Z,4.80
2019-05-02T04:01:00.900Z,5.07
2019-05-02T04:03:19.510Z,4.33
2019-05-02T04:05:47.270Z,4.90
2019-05-02T04:08:20.923Z,4.97
2019-05-02T04:11:22.572Z,5.00
2019-05-02T04:13:51.956Z,5.40
2019-05-02T04:16:19.263Z,5.10
2019-05-02T04:18:54.626Z,5.40
2019-05-02T04:21:16.460Z,4.80
2019-05-02T04:23:44.388Z,5.03
2019-05-02T04:26:14.402Z,5.33
2019-05-02T04:28:45.641Z,4.80
2019-05-02T04:31:11.636Z,5.40
2019-05-02T04:33:38.952Z,5.33
2019-05-02T04:36:13.503Z,4.90
2019-05-02T04:38:44.447Z,5.40
2019-05-02T04:41:04.771Z,4.23
2019-05-02T04:43:32.110Z,5.37
2019-05-02T04:46:00.301Z,5.07
2019-05-02T04:48:28.523Z,4.97
2019-05-02T04:50:59.732Z,4.60
2019-05-02T04:53:36.822Z,5.13
2019-05-02T04:56:03.492Z,4.43
2019-05-02T04:58:31.446Z,4.93
2019-05-02T05:00:58.123Z,4.63
2019-05-02T05:03:22.485Z,4.87
2019-05-02T05:05:49.831Z,4.50
2019-05-02T05:08:26.019Z,4.70
2019-05-02T05:10:47.981Z,4.80
2019-05-02T05:13:19.429Z,4.50
2019-05-02T05:15:49.498Z,4.60
2019-05-02T05:18:14.658Z,4.70
2019-05-02T05:20:45.947Z,4.70
2019-05-02T05:23:15.601Z,4.00
2019-05-02T05:25:50.805Z,4.50
2019-05-02T05:28:20.054Z,4.60
2019-05-02T05:30:51.873Z,4.40
2019-05-02T05:33:18.311Z,4.57
2019-05-02T05:35:50.970Z,4.90
2019-05-02T05:38:15.120Z,4.47
2019-05-02T05:40:42.408Z,4.57
2019-05-02T05:43:14.235Z,4.80
2019-05-02T05:45:50.745Z,5.17
2019-05-02T05:48:08.337Z,4.30
2019-05-02T05:50:37.726Z,4.60
2019-05-02T05:53:05.029Z,4.93
2019-05-02T05:55:32.334Z,4.97
2019-05-02T05:58:06.260Z,5.17
2019-05-02T06:00:28.858Z,4.80
2019-05-02T06:03:01.989Z,4.20
2019-05-02T06:05:27.181Z,4.90
2019-05-02T06:07:54.649Z,4.90
2019-05-02T06:10:21.921Z,4.63
2019-05-02T06:13:27.460Z,4.70
2019-05-02T06:16:02.045Z,4.23
2019-05-02T06:18:28.819Z,4.80
2019-05-02T06:20:58.408Z,4.53
2019-05-02T06:23:31.050Z,4.10
2019-05-02T06:26:01.199Z,3.80
2019-05-02T06:28:28.579Z,4.70
2019-05-02T06:30:55.914Z,4.00
2019-05-02T06:33:25.925Z,3.93
2019-05-02T06:36:01.114Z,4.27
2019-05-02T06:38:23.429Z,4.13
2019-05-02T06:40:50.788Z,3.97
2019-05-02T06:43:18.064Z,3.80
2019-05-02T06:45:45.357Z,3.80
2019-05-02T06:48:17.170Z,4.53
2019-05-02T06:50:41.894Z,3.13
2019-05-02T06:53:11.017Z,3.93
2019-05-02T06:55:38.695Z,3.90
2019-05-02T06:58:08.165Z,3.30
2019-05-02T07:00:49.814Z,2.63
2019-05-02T07:03:10.336Z,2.87
2019-05-02T07:05:34.471Z,2.57
2019-05-02T07:08:09.552Z,2.87
2019-05-02T07:10:44.098Z,2.63
2019-05-02T07:13:10.193Z,2.67
2019-05-02T07:15:50.067Z,2.57
2019-05-02T07:18:17.851Z,2.27
2019-05-02T07:20:45.159Z,2.93
2019-05-02T07:23:16.184Z,2.00
2019-05-02T07:25:43.900Z,2.30
2019-05-02T07:28:10.976Z,2.40
2019-05-02T07:30:38.950Z,2.50
2019-05-02T07:33:06.251Z,2.43
2019-05-02T07:35:33.610Z,2.13
2019-05-02T07:38:00.901Z,2.53
2019-05-02T07:40:30.165Z,2.30
2019-05-02T07:42:57.476Z,2.77
2019-05-02T07:45:24.790Z,2.20
2019-05-02T07:47:52.108Z,2.30
2019-05-02T07:50:19.432Z,2.50
2019-05-02T07:52:47.233Z,2.53
2019-05-02T07:55:14.710Z,2.60
2019-05-02T07:57:42.064Z,2.43
2019-05-02T08:00:09.907Z,2.67
2019-05-02T08:02:37.231Z,2.50
2019-05-02T08:05:05.050Z,2.60
2019-05-02T08:07:34.236Z,2.57
2019-05-02T08:10:01.609Z,2.40
2019-05-02T08:12:28.951Z,2.23
2019-05-02T08:14:56.262Z,2.40
2019-05-02T08:17:23.565Z,2.50
2019-05-02T08:19:50.886Z,2.30
2019-05-02T08:22:18.323Z,2.67
2019-05-02T08:24:45.626Z,4.47
2019-05-02T08:27:34.671Z,5.97
2019-05-02T08:30:04.304Z,2.93
2019-05-02T08:32:31.036Z,2.53
2019-05-02T08:34:58.348Z,2.53
2019-05-02T08:37:25.650Z,2.17
2019-05-02T08:39:52.973Z,2.40
2019-05-02T08:42:20.291Z,1.90
2019-05-02T08:44:51.288Z,2.10
2019-05-02T08:47:19.134Z,2.40
2019-05-02T08:49:49.367Z,2.40
2019-05-02T08:52:15.349Z,2.60
2019-05-02T08:54:42.646Z,2.30
2019-05-02T08:57:09.990Z,1.93
2019-05-02T08:59:37.365Z,2.20
2019-05-02T09:02:04.695Z,2.27
2019-05-02T09:04:32.049Z,2.30
2019-05-02T09:07:00.811Z,2.03
2019-05-02T09:09:29.582Z,2.07
2019-05-02T09:12:08.947Z,2.07
2019-05-02T09:14:26.283Z,2.10
2019-05-02T09:16:53.645Z,3.27
2019-05-02T09:19:24.942Z,2.50
2019-05-02T09:21:52.529Z,2.23
2019-05-02T09:24:23.200Z,2.53
2019-05-02T09:26:48.852Z,2.37
2019-05-02T09:29:16.166Z,2.10
2019-05-02T09:31:46.019Z,2.97
2019-05-02T09:34:17.071Z,2.00
2019-05-02T09:36:42.076Z,2.10
2019-05-02T09:39:09.431Z,2.03
2019-05-02T09:41:36.755Z,1.80
2019-05-02T09:44:04.161Z,2.00
2019-05-02T09:46:32.486Z,2.00
2019-05-02T09:49:02.865Z,2.03
2019-05-02T09:51:29.165Z,1.80
2019-05-02T09:53:57.134Z,1.80
2019-05-02T09:56:25.747Z,1.50
2019-05-02T09:58:55.340Z,2.00
2019-05-02T10:01:31.776Z,1.80
2019-05-02T10:03:59.431Z,1.93
2019-05-02T10:06:26.777Z,1.70
2019-05-02T10:08:54.200Z,1.87
2019-05-02T10:11:24.418Z,2.10
2019-05-02T10:13:51.853Z,1.60
2019-05-02T10:16:23.622Z,1.93
2019-05-02T10:18:49.288Z,1.60
2019-05-02T10:21:17.297Z,1.80
2019-05-02T10:23:44.751Z,2.07
2019-05-02T10:26:19.833Z,1.70
2019-05-02T10:28:49.114Z,1.87
2019-05-02T10:31:12.707Z,1.77
2019-05-02T10:33:42.018Z,1.70
2019-05-02T10:36:13.690Z,1.57
2019-05-02T10:38:38.780Z,1.50
2019-05-02T10:41:06.223Z,1.80
2019-05-02T10:43:33.617Z,2.00
2019-05-02T10:46:07.248Z,1.80
2019-05-02T10:48:37.532Z,1.87
2019-05-02T10:51:49.039Z,1.83
2019-05-02T10:54:12.217Z,1.90
2019-05-02T10:56:39.595Z,1.70
2019-05-02T10:59:06.938Z,1.97
2019-05-02T11:02:04.834Z,1.70
2019-05-02T11:04:33.746Z,1.90
2019-05-02T11:07:02.628Z,1.40
2019-05-02T11:09:31.932Z,2.03
2019-05-02T11:12:02.571Z,2.10
2019-05-02T11:14:55.224Z,2.03
2019-05-02T11:17:36.470Z,1.67
2019-05-02T11:20:06.791Z,2.23
2019-05-02T11:22:34.090Z,1.80
2019-05-02T11:25:02.023Z,2.10
2019-05-02T11:27:29.509Z,2.13
2019-05-02T11:29:56.812Z,1.97
2019-05-02T11:32:24.159Z,2.00
2019-05-02T11:34:52.497Z,2.10
2019-05-02T11:37:19.926Z,2.00
2019-05-02T11:39:53.142Z,2.20
2019-05-02T11:42:17.611Z,1.90
2019-05-02T11:44:45.787Z,2.10
2019-05-02T11:47:17.273Z,2.13
2019-05-02T11:49:46.702Z,1.90
2019-05-02T11:52:11.918Z,1.83
2019-05-02T11:54:43.991Z,2.43
2019-05-02T11:57:08.646Z,2.10
2019-05-02T11:59:36.501Z,2.00
2019-05-02T12:02:23.509Z,1.90
2019-05-02T12:04:52.597Z,1.80
2019-05-02T12:07:20.131Z,1.63
2019-05-02T12:09:52.058Z,1.93
2019-05-02T12:12:16.729Z,2.17
2019-05-02T12:14:44.104Z,1.87
2019-05-02T12:17:12.140Z,1.90
2019-05-02T12:19:39.656Z,1.63
2019-05-02T12:22:11.420Z,2.00
2019-05-02T12:24:40.366Z,1.83
2019-05-02T12:27:05.566Z,1.77
2019-05-02T12:29:33.556Z,2.00
2019-05-02T12:32:02.645Z,2.13
2019-05-02T12:34:30.210Z,2.07
2019-05-02T12:36:57.545Z,1.80
2019-05-02T12:39:24.943Z,1.80
2019-05-02T12:41:53.749Z,1.50
2019-05-02T12:44:22.319Z,1.60
2019-05-02T12:46:51.618Z,2.00
2019-05-02T12:49:25.351Z,1.97
2019-05-02T12:51:49.233Z,1.77
2019-05-02T12:54:16.617Z,1.80
2019-05-02T12:56:43.920Z,1.70
2019-05-02T12:59:11.814Z,1.80
2019-05-02T13:01:39.538Z,1.77
2019-05-02T13:04:12.466Z,1.57
2019-05-02T13:06:41.986Z,2.10
2019-05-02T13:09:12.708Z,2.17
2019-05-02T13:12:03.271Z,1.80
2019-05-02T13:14:32.063Z,1.53
2019-05-02T13:17:03.841Z,1.90
2019-05-02T13:19:37.987Z,1.83
2019-05-02T13:22:16.126Z,1.83
2019-05-02T13:24:52.357Z,1.70
2019-05-02T13:27:18.750Z,2.10
2019-05-02T13:29:47.566Z,1.70
2019-05-02T13:32:37.781Z,1.60
2019-05-02T13:35:13.427Z,1.90
2019-05-02T13:37:42.417Z,1.80
2019-05-02T13:40:17.178Z,1.57
2019-05-02T13:42:44.701Z,2.03
2019-05-02T13:45:26.479Z,1.90
2019-05-02T13:47:53.791Z,1.80
2019-05-02T13:50:22.341Z,2.00
2019-05-02T13:52:53.111Z,2.13
2019-05-02T13:55:23.909Z,2.10
2019-05-02T13:57:53.004Z,1.97
2019-05-02T14:00:28.186Z,1.67
2019-05-02T14:02:55.631Z,1.80
2019-05-02T14:05:22.945Z,2.00
2019-05-02T14:07:55.546Z,1.90
2019-05-02T14:10:39.373Z,1.80
2019-05-02T14:13:03.282Z,1.60
2019-05-02T14:15:36.412Z,1.90
2019-05-02T14:18:03.906Z,2.10
2019-05-02T14:20:33.039Z,2.20
2019-05-02T14:23:02.213Z,2.00
2019-05-02T14:25:31.933Z,2.07
2019-05-02T14:27:59.066Z,2.03
2019-05-02T14:30:37.332Z,2.23
2019-05-02T14:33:02.306Z,1.97
2019-05-02T14:35:32.653Z,2.20
2019-05-02T14:38:10.295Z,2.43
2019-05-02T14:40:47.152Z,2.20
2019-05-02T14:43:38.087Z,2.10
2019-05-02T14:46:03.666Z,2.47
2019-05-02T14:48:41.003Z,2.17
2019-05-02T14:51:05.046Z,2.37
2019-05-02T14:53:32.391Z,2.50
2019-05-02T14:56:09.854Z,2.97
2019-05-02T14:58:37.911Z,2.90
2019-05-02T15:01:05.805Z,2.17
2019-05-02T15:03:33.147Z,2.10
2019-05-02T15:06:04.187Z,2.20
2019-05-02T15:08:29.839Z,2.37
2019-05-02T15:10:57.166Z,2.37
2019-05-02T15:13:24.581Z,2.57
2019-05-02T15:15:53.038Z,2.40
2019-05-02T15:18:22.702Z,2.60
2019-05-02T15:20:51.996Z,2.70
2019-05-02T15:23:19.825Z,2.70
2019-05-02T15:25:52.529Z,2.47
2019-05-02T15:28:22.665Z,2.47
2019-05-02T15:31:05.057Z,2.40
2019-05-02T15:33:34.938Z,2.60
2019-05-02T15:36:07.411Z,2.40
2019-05-02T15:38:37.158Z,2.30
2019-05-02T15:41:05.022Z,2.80
2019-05-02T15:43:31.830Z,3.10
2019-05-02T15:45:59.347Z,2.90
2019-05-02T15:48:27.745Z,2.80
2019-05-02T15:50:59.717Z,2.53
2019-05-02T15:53:32.862Z,2.80
2019-05-02T15:56:01.968Z,2.70
2019-05-02T15:58:29.417Z,2.63
2019-05-02T16:01:16.857Z,2.70
2019-05-02T16:03:46.573Z,2.53
2019-05-02T16:06:16.601Z,2.73
2019-05-02T16:08:45.807Z,2.70
2019-05-02T16:11:16.954Z,2.70
2019-05-02T16:13:46.994Z,2.90
2019-05-02T16:16:13.277Z,2.67
2019-05-02T16:18:43.511Z,2.60
2019-05-02T16:21:18.377Z,2.90
2019-05-02T16:24:10.846Z,2.97
2019-05-02T16:26:37.162Z,2.67
2019-05-02T16:29:02.826Z,3.13
2019-05-02T16:31:32.253Z,3.00
2019-05-02T16:33:59.605Z,2.67
2019-05-02T16:36:33.830Z,2.70
2019-05-02T16:38:56.227Z,2.83
2019-05-02T16:41:23.615Z,2.63
2019-05-02T16:43:51.890Z,2.80
2019-05-02T16:46:21.601Z,2.97
2019-05-02T16:48:48.819Z,2.53
2019-05-02T16:51:30.260Z,3.17
2019-05-02T16:53:45.454Z,2.70
2019-05-02T16:56:12.917Z,2.47
2019-05-02T16:58:43.295Z,2.53
2019-05-02T17:01:09.679Z,2.70
2019-05-02T17:03:37.071Z,2.70
2019-05-02T17:06:04.550Z,2.70
2019-05-02T17:08:49.517Z,2.73
2019-05-02T17:11:31.373Z,2.60
2019-05-02T17:13:56.812Z,2.80
2019-05-02T17:16:24.169Z,2.70
2019-05-02T17:18:54.961Z,2.93
2019-05-02T17:21:22.172Z,3.20
2019-05-02T17:23:52.194Z,3.13
2019-05-02T17:26:18.981Z,2.87
2019-05-02T17:28:47.265Z,3.20
2019-05-02T17:31:19.624Z,2.93
2019-05-02T17:33:46.290Z,2.67
2019-05-02T17:36:13.520Z,2.70
2019-05-02T17:38:41.861Z,2.83
2019-05-02T17:41:09.381Z,2.63
2019-05-02T17:43:37.403Z,2.73
2019-05-02T17:46:07.587Z,2.53
2019-05-02T17:48:37.466Z,2.60
2019-05-02T17:51:22.751Z,2.27
2019-05-02T17:53:52.283Z,2.60
2019-05-02T17:56:22.331Z,3.60
2019-05-02T17:58:54.106Z,2.90
2019-05-02T18:01:26.436Z,3.10
2019-05-02T18:03:55.334Z,3.40
2019-05-02T18:06:32.684Z,3.03
2019-05-02T18:08:55.269Z,3.30
2019-05-02T18:11:22.358Z,3.40
2019-05-02T18:13:51.717Z,3.10
2019-05-02T18:16:19.508Z,2.93
2019-05-02T18:18:47.117Z,2.80
2019-05-02T18:21:17.216Z,3.43
2019-05-02T18:23:44.184Z,3.00
2019-05-02T18:26:11.914Z,3.60
2019-05-02T18:28:46.841Z,3.53
2019-05-02T18:31:08.886Z,3.50
2019-05-02T18:33:41.157Z,3.37
2019-05-02T18:36:06.349Z,4.30
2019-05-02T18:38:34.168Z,3.97
2019-05-02T18:41:05.822Z,3.97
2019-05-02T18:43:31.608Z,4.30
2019-05-02T18:46:07.388Z,4.37
2019-05-02T18:48:36.614Z,4.27
2019-05-02T18:51:03.304Z,4.53
2019-05-02T18:53:32.711Z,4.10
2019-05-02T18:56:01.777Z,5.40
2019-05-02T18:58:31.945Z,4.37
2019-05-02T19:01:00.297Z,4.87
2019-05-02T19:03:28.345Z,4.87
2019-05-02T19:06:02.208Z,4.57
2019-05-02T19:08:45.191Z,4.50
2019-05-02T19:11:10.010Z,4.10
2019-05-02T19:13:32.855Z,4.87
2019-05-02T19:16:02.400Z,4.30
2019-05-02T19:18:32.647Z,4.43
2019-05-02T19:21:02.780Z,4.53
2019-05-02T19:23:31.984Z,4.50
2019-05-02T19:26:02.309Z,4.87
2019-05-02T19:28:39.462Z,4.70
2019-05-02T19:31:07.578Z,4.90
2019-05-02T19:33:37.421Z,4.33
2019-05-02T19:36:06.137Z,4.57
2019-05-02T19:38:34.913Z,4.27
2019-05-02T19:41:08.803Z,4.30
2019-05-02T19:43:34.936Z,4.70
2019-05-02T19:46:03.400Z,4.63
2019-05-02T19:48:36.762Z,4.53
2019-05-02T19:51:02.558Z,4.20
2019-05-02T19:53:32.317Z,4.73
2019-05-02T19:56:01.349Z,4.77
2019-05-02T19:58:31.999Z,4.57
2019-05-02T20:01:02.050Z,5.03
2019-05-02T20:03:32.148Z,5.10
2019-05-02T20:06:02.275Z,5.27
2019-05-02T20:08:30.018Z,5.20
2019-05-02T20:10:58.498Z,4.97
2019-05-02T20:13:30.615Z,4.93
2019-05-02T20:16:12.554Z,4.30
2019-05-02T20:18:46.968Z,4.83
2019-05-02T20:21:27.258Z,4.70
2019-05-02T20:23:49.760Z,4.77
2019-05-02T20:26:17.298Z,4.23
2019-05-02T20:28:44.836Z,4.90
2019-05-02T20:31:12.654Z,4.73
2019-05-02T20:33:42.849Z,3.93
2019-05-02T20:36:12.387Z,4.40
2019-05-02T20:38:42.407Z,3.93
2019-05-02T20:41:10.059Z,4.10
2019-05-02T20:43:38.486Z,3.53
2019-05-02T20:46:05.942Z,3.70
2019-05-02T20:48:33.455Z,3.77
2019-05-02T20:51:02.512Z,4.13
2019-05-02T20:53:31.860Z,4.47
2019-05-02T20:56:01.681Z,3.17
2019-05-02T20:58:30.177Z,2.97
2019-05-02T21:01:07.827Z,2.70
2019-05-02T21:03:29.696Z,3.00
2019-05-02T21:06:12.930Z,2.90
2019-05-02T21:09:02.044Z,2.67
2019-05-02T21:11:29.049Z,2.20
2019-05-02T21:13:56.398Z,2.10
2019-05-02T21:16:23.742Z,1.70
2019-05-02T21:18:51.062Z,1.20
2019-05-02T21:21:21.921Z,2.00
2019-05-02T21:23:49.633Z,1.43
2019-05-02T21:26:16.946Z,1.43
2019-05-02T21:28:46.179Z,1.20
2019-05-02T21:31:13.498Z,1.10
2019-05-02T21:33:42.798Z,1.60
2019-05-02T21:36:12.015Z,1.20
2019-05-02T21:38:39.599Z,1.17
2019-05-02T21:41:09.304Z,0.90
2019-05-02T21:43:36.680Z,1.07
2019-05-02T21:46:03.966Z,1.17
2019-05-02T21:48:32.710Z,1.10
2019-05-02T21:51:19.718Z,1.10
2019-05-02T21:54:03.301Z,1.00
2019-05-02T21:56:52.310Z,1.20
2019-05-02T21:59:19.628Z,1.10
2019-05-02T22:01:51.751Z,1.00
2019-05-02T22:04:19.220Z,0.83
2019-05-02T22:06:46.579Z,1.03
2019-05-02T22:09:14.246Z,1.00
2019-05-02T22:11:43.001Z,1.17
2019-05-02T22:14:10.466Z,0.87
2019-05-02T22:16:37.803Z,1.10
2019-05-02T22:19:05.325Z,1.10
2019-05-02T22:21:35.187Z,1.07
2019-05-02T22:24:09.766Z,1.03
2019-05-02T22:26:32.720Z,0.90
2019-05-02T22:29:01.932Z,0.73
2019-05-02T22:31:29.575Z,1.10
2019-05-02T22:33:56.924Z,0.70
2019-05-02T22:36:24.177Z,1.03
2019-05-02T22:39:02.689Z,0.83
2019-05-02T22:41:30.016Z,0.73
2019-05-02T22:43:57.306Z,0.93
2019-05-02T22:46:43.228Z,0.90
2019-05-02T22:49:14.639Z,1.00
2019-05-02T22:51:42.617Z,0.93
2019-05-02T22:54:23.363Z,1.10
2019-05-02T22:56:42.461Z,1.30
2019-05-02T22:59:09.887Z,1.10
2019-05-02T23:01:37.198Z,0.97
2019-05-02T23:04:04.839Z,1.00
2019-05-02T23:06:32.142Z,1.03
2019-05-02T23:08:59.549Z,1.10
2019-05-02T23:11:26.908Z,0.80
2019-05-02T23:13:54.200Z,1.07
2019-05-02T23:16:21.546Z,1.23
2019-05-02T23:18:48.826Z,0.70
2019-05-02T23:21:16.136Z,0.80
2019-05-02T23:23:43.458Z,0.80
2019-05-02T23:26:22.466Z,0.97
2019-05-02T23:28:51.748Z,0.90
2019-05-02T23:31:19.175Z,1.00
2019-05-02T23:33:58.699Z,1.00
2019-05-02T23:36:27.793Z,1.00
2019-05-02T23:38:55.070Z,0.87
2019-05-02T23:41:22.537Z,0.67
2019-05-02T23:43:49.942Z,0.83
2019-05-02T23:46:17.257Z,0.90
2019-05-02T23:48:44.577Z,0.70
2019-05-02T23:51:12.173Z,0.90
2019-05-02T23:53:39.597Z,0.93
2019-05-02T23:56:06.916Z,0.93
2019-05-02T23:58:34.237Z,0.90
